createdAt,value
2019-02-05T00:03:52.515Z,50.20
2019-02-05T00:08:47.697Z,50.10
2019-02-05T00:11:15.081Z,50.00
2019-02-05T00:13:42.449Z,50.00
2019-02-05T00:16:09.887Z,50.00
2019-02-05T00:18:37.236Z,49.90
2019-02-05T00:28:28.536Z,50.10
2019-02-05T00:30:55.965Z,50.20
2019-02-05T00:35:50.626Z,50.10
2019-02-05T00:38:18.032Z,50.00
2019-02-05T00:40:45.797Z,50.00
2019-02-05T00:43:13.214Z,50.00
2019-02-05T00:45:40.660Z,50.00
2019-02-05T00:48:08.071Z,50.00
2019-02-05T00:53:02.908Z,50.00
2019-02-05T01:07:48.962Z,50.10
2019-02-05T01:10:16.920Z,50.10
2019-02-05T01:12:44.357Z,50.20
2019-02-05T01:15:13.869Z,50.20
2019-02-05T01:17:41.335Z,50.30
2019-02-05T01:20:11.942Z,50.40
2019-02-05T01:22:39.311Z,50.40
2019-02-05T01:25:06.764Z,50.30
2019-02-05T01:27:34.343Z,50.30
2019-02-05T01:30:01.809Z,50.30
2019-02-05T01:32:29.159Z,50.20
2019-02-05T01:34:56.597Z,50.20
2019-02-05T01:37:23.982Z,50.20
2019-02-05T01:39:51.306Z,50.20
2019-02-05T01:44:46.058Z,50.10
2019-02-05T01:47:13.632Z,50.10
2019-02-05T01:52:08.468Z,50.10
2019-02-05T01:54:35.906Z,50.10
2019-02-05T01:57:03.505Z,50.20
2019-02-05T01:59:30.941Z,50.20
2019-02-05T02:01:58.364Z,50.20
2019-02-05T02:04:25.796Z,50.10
2019-02-05T02:06:53.206Z,50.20
2019-02-05T02:09:20.653Z,50.20
2019-02-05T02:11:48.033Z,50.20
2019-02-05T02:14:15.530Z,50.10
2019-02-05T02:21:37.408Z,50.20
2019-02-05T02:24:05.107Z,50.30
2019-02-05T02:28:59.769Z,50.20
2019-02-05T02:31:27.036Z,50.10
2019-02-05T02:33:54.421Z,50.00
2019-02-05T02:38:49.083Z,49.80
2019-02-05T02:43:44.877Z,49.80
2019-02-05T02:46:12.149Z,49.70
2019-02-05T02:48:39.489Z,49.70
2019-02-05T02:51:06.854Z,49.70
2019-02-05T02:53:34.312Z,49.70
2019-02-05T02:56:01.730Z,49.70
2019-02-05T02:58:30.345Z,49.70
2019-02-05T03:00:57.723Z,49.70
2019-02-05T03:03:25.116Z,49.60
2019-02-05T03:08:19.819Z,49.70
2019-02-05T03:10:47.247Z,49.70
2019-02-05T03:13:14.918Z,49.80
2019-02-05T03:15:42.325Z,49.90
2019-02-05T03:18:10.119Z,50.00
2019-02-05T03:20:37.576Z,50.10
2019-02-05T03:23:05.048Z,50.10
2019-02-05T03:27:59.800Z,50.10
2019-02-05T03:32:54.824Z,50.20
2019-02-05T03:35:22.558Z,50.10
2019-02-05T03:41:09.214Z,50.20
2019-02-05T03:43:37.593Z,50.20
2019-02-05T03:46:07.042Z,50.20
2019-02-05T03:51:39.761Z,50.10
2019-02-05T03:54:29.511Z,50.10
2019-02-05T03:57:47.961Z,50.00
2019-02-05T04:00:45.789Z,50.10
2019-02-05T04:03:58.220Z,50.10
2019-02-05T04:07:25.560Z,50.10
2019-02-05T04:10:19.210Z,50.00
2019-02-05T04:13:43.984Z,50.00
2019-02-05T04:16:48.416Z,50.00
2019-02-05T04:19:43.338Z,50.00
2019-02-05T04:22:43.978Z,50.10
2019-02-05T04:28:52.788Z,50.20
2019-02-05T04:31:45.607Z,50.20
2019-02-05T04:34:31.739Z,50.20
2019-02-05T04:37:52.979Z,50.20
2019-02-05T04:40:42.402Z,50.00
2019-02-05T04:43:33.887Z,49.90
2019-02-05T04:49:37.135Z,49.90
2019-02-05T04:52:54.496Z,49.90
2019-02-05T04:55:37.369Z,50.00
2019-02-05T04:58:31.490Z,50.10
2019-02-05T05:04:13.293Z,50.20
2019-02-05T05:07:27.699Z,50.30
2019-02-05T05:12:24.286Z,50.40
2019-02-05T05:14:51.740Z,50.50
2019-02-05T05:19:46.823Z,50.40
2019-02-05T05:24:42.749Z,50.50
2019-02-05T05:32:08.983Z,50.50
2019-02-05T05:34:36.524Z,50.60
2019-02-05T05:39:30.798Z,50.60
2019-02-05T05:41:58.182Z,50.60
2019-02-05T05:46:55.547Z,50.60
2019-02-05T05:49:27.194Z,50.60
2019-02-05T05:51:54.573Z,50.60
2019-02-05T05:54:21.863Z,50.60
2019-02-05T05:56:49.421Z,50.60
2019-02-05T05:59:16.840Z,50.60
2019-02-05T06:04:12.501Z,50.50
2019-02-05T06:06:45.187Z,50.50
2019-02-05T06:14:07.549Z,50.50
2019-02-05T06:16:35.005Z,50.50
2019-02-05T06:19:02.423Z,50.50
2019-02-05T06:21:29.815Z,50.50
2019-02-05T06:26:24.892Z,50.50
2019-02-05T06:28:52.269Z,50.40
2019-02-05T06:31:19.616Z,50.40
2019-02-05T06:33:47.368Z,50.30
2019-02-05T06:38:44.579Z,50.20
2019-02-05T06:41:11.372Z,50.10
2019-02-05T06:43:39.088Z,50.10
2019-02-05T06:46:06.520Z,50.00
2019-02-05T06:48:33.964Z,50.00
2019-02-05T06:51:01.331Z,50.00
2019-02-05T06:53:28.846Z,49.90
2019-02-05T06:55:56.160Z,49.90
2019-02-05T06:58:23.536Z,49.80
2019-02-05T07:00:50.855Z,49.70
2019-02-05T07:03:18.466Z,49.70
2019-02-05T07:08:15.119Z,49.60
2019-02-05T07:13:10.028Z,49.40
2019-02-05T07:15:37.454Z,49.30
2019-02-05T07:18:05.019Z,49.30
2019-02-05T07:20:34.130Z,49.30
2019-02-05T07:23:01.529Z,49.30
2019-02-05T07:25:29.164Z,49.30
2019-02-05T07:27:56.658Z,49.40
2019-02-05T07:30:24.239Z,49.30
2019-02-05T07:32:51.482Z,49.30
2019-02-05T07:35:18.979Z,49.20
2019-02-05T07:37:49.128Z,49.20
2019-02-05T07:40:17.581Z,49.20
2019-02-05T07:42:45.016Z,49.30
2019-02-05T07:45:15.020Z,49.40
2019-02-05T07:47:42.426Z,49.40
2019-02-05T07:50:15.591Z,49.50
2019-02-05T07:55:10.659Z,49.80
2019-02-05T07:57:38.064Z,49.80
2019-02-05T08:00:17.933Z,49.90
2019-02-05T08:02:45.510Z,49.90
2019-02-05T08:05:15.788Z,49.90
2019-02-05T08:07:43.678Z,49.80
2019-02-05T08:10:12.555Z,49.90
2019-02-05T08:15:09.606Z,49.80
2019-02-05T08:20:05.570Z,49.80
2019-02-05T08:25:00.353Z,49.80
2019-02-05T08:27:27.713Z,49.70
2019-02-05T08:29:55.031Z,49.80
2019-02-05T08:32:22.546Z,49.80
2019-02-05T08:34:49.997Z,49.80
2019-02-05T08:37:17.774Z,49.70
2019-02-05T08:39:45.165Z,49.80
2019-02-05T08:42:12.627Z,49.90
2019-02-05T08:49:34.729Z,49.70
2019-02-05T08:52:02.176Z,49.80
2019-02-05T08:56:57.367Z,49.90
2019-02-05T08:59:24.794Z,50.00
2019-02-05T09:01:52.324Z,50.20
2019-02-05T09:04:19.712Z,50.10
2019-02-05T09:06:47.126Z,50.30
2019-02-05T09:09:14.583Z,50.30
2019-02-05T09:16:38.531Z,50.00
2019-02-05T09:19:06.808Z,49.90
2019-02-05T09:21:34.245Z,50.00
2019-02-05T09:24:05.952Z,49.90
2019-02-05T09:26:33.287Z,49.70
2019-02-05T09:29:00.619Z,49.60
2019-02-05T09:33:55.989Z,49.20
2019-02-05T09:36:23.847Z,49.40
2019-02-05T09:38:51.683Z,48.70
2019-02-05T09:41:19.081Z,49.00
2019-02-05T09:43:46.531Z,48.40
2019-02-05T09:46:14.025Z,48.20
2019-02-05T09:48:41.409Z,48.20
2019-02-05T09:51:08.840Z,48.10
2019-02-05T09:53:36.304Z,47.40
2019-02-05T09:56:03.786Z,47.10
2019-02-05T09:58:31.223Z,47.40
2019-02-05T10:00:59.810Z,47.30
2019-02-05T10:03:27.520Z,46.30
2019-02-05T10:05:55.000Z,46.30
2019-02-05T10:08:22.443Z,46.40
2019-02-05T10:10:49.911Z,46.20
2019-02-05T10:13:17.555Z,46.00
2019-02-05T10:15:45.048Z,46.10
2019-02-05T10:18:12.431Z,47.50
2019-02-05T10:20:39.932Z,45.80
2019-02-05T10:23:08.214Z,46.80
2019-02-05T10:25:35.915Z,45.90
2019-02-05T10:28:03.520Z,45.80
2019-02-05T10:30:33.038Z,45.70
2019-02-05T10:33:01.913Z,43.90
2019-02-05T10:35:29.352Z,45.40
2019-02-05T10:37:57.776Z,45.30
2019-02-05T10:40:25.719Z,45.20
2019-02-05T10:42:53.138Z,45.00
2019-02-05T10:45:20.619Z,45.70
2019-02-05T10:47:48.959Z,44.80
2019-02-05T10:50:16.948Z,45.00
2019-02-05T10:52:45.004Z,45.70
2019-02-05T10:55:14.554Z,44.50
2019-02-05T10:57:42.000Z,44.20
2019-02-05T11:00:13.573Z,42.70
2019-02-05T11:02:41.853Z,43.30
2019-02-05T11:05:10.819Z,42.10
2019-02-05T11:07:38.272Z,41.90
2019-02-05T11:10:08.114Z,40.70
2019-02-05T11:12:35.575Z,40.40
2019-02-05T11:15:04.675Z,39.40
2019-02-05T11:17:32.197Z,37.10
2019-02-05T11:19:59.673Z,38.90
2019-02-05T11:22:27.223Z,38.50
2019-02-05T11:24:54.575Z,38.20
2019-02-05T11:27:27.906Z,38.10
2019-02-05T11:29:55.288Z,38.40
2019-02-05T11:32:22.761Z,38.10
2019-02-05T11:34:50.181Z,37.90
2019-02-05T11:37:17.616Z,37.90
2019-02-05T11:39:45.112Z,37.60
2019-02-05T11:42:12.502Z,37.80
2019-02-05T11:44:40.047Z,37.80
2019-02-05T11:47:07.512Z,38.00
2019-02-05T11:49:34.955Z,37.50
2019-02-05T11:52:02.388Z,37.10
2019-02-05T11:54:30.359Z,37.10
2019-02-05T11:56:57.733Z,37.20
2019-02-05T11:59:25.163Z,37.00
2019-02-05T12:01:52.747Z,37.00
2019-02-05T12:04:20.143Z,36.90
2019-02-05T12:06:47.920Z,36.90
2019-02-05T12:11:44.504Z,36.20
2019-02-05T12:14:11.986Z,36.50
2019-02-05T12:16:42.161Z,36.40
2019-02-05T12:19:09.616Z,36.10
2019-02-05T12:21:37.057Z,36.10
2019-02-05T12:24:04.609Z,35.80
2019-02-05T12:26:32.186Z,35.60
2019-02-05T12:28:59.624Z,35.40
2019-02-05T12:31:27.062Z,35.20
2019-02-05T12:33:54.492Z,34.90
2019-02-05T12:36:22.296Z,34.90
2019-02-05T12:38:49.715Z,35.00
2019-02-05T12:41:17.191Z,34.90
2019-02-05T12:43:44.630Z,35.00
2019-02-05T12:46:12.022Z,34.90
2019-02-05T12:48:39.590Z,34.80
2019-02-05T12:51:07.096Z,33.70
2019-02-05T12:53:34.522Z,34.90
2019-02-05T12:56:01.944Z,35.20
2019-02-05T12:58:29.328Z,35.10
2019-02-05T13:00:59.050Z,35.20
2019-02-05T13:03:26.403Z,35.30
2019-02-05T13:05:54.044Z,34.40
2019-02-05T13:08:21.480Z,34.50
2019-02-05T13:10:50.713Z,35.50
2019-02-05T13:13:18.521Z,35.70
2019-02-05T13:15:46.258Z,35.60
2019-02-05T13:18:13.731Z,35.50
2019-02-05T13:20:41.319Z,35.50
2019-02-05T13:23:09.230Z,35.60
2019-02-05T13:25:36.953Z,36.00
2019-02-05T13:28:07.110Z,36.00
2019-02-05T13:30:34.605Z,36.10
2019-02-05T13:33:01.995Z,36.00
2019-02-05T13:35:29.950Z,36.00
2019-02-05T13:37:57.682Z,35.90
2019-02-05T13:40:25.694Z,35.80
2019-02-05T13:42:52.998Z,35.60
2019-02-05T13:45:23.170Z,35.20
2019-02-05T13:47:50.688Z,35.60
2019-02-05T13:50:32.107Z,35.30
2019-02-05T13:52:49.786Z,35.30
2019-02-05T13:55:20.720Z,35.10
2019-02-05T13:57:48.114Z,35.80
2019-02-05T14:00:23.442Z,34.90
2019-02-05T14:02:50.863Z,35.10
2019-02-05T14:05:18.274Z,35.10
2019-02-05T14:07:46.034Z,35.10
2019-02-05T14:10:16.893Z,34.90
2019-02-05T14:12:44.194Z,35.10
2019-02-05T14:15:11.946Z,35.20
2019-02-05T14:17:39.300Z,35.30
2019-02-05T14:20:07.520Z,35.30
2019-02-05T14:22:35.003Z,35.30
2019-02-05T14:25:03.508Z,35.10
2019-02-05T14:27:30.995Z,34.80
2019-02-05T14:29:58.363Z,35.00
2019-02-05T14:32:25.649Z,34.80
2019-02-05T14:34:52.989Z,34.90
2019-02-05T14:37:20.237Z,35.00
2019-02-05T14:39:48.991Z,34.90
2019-02-05T14:42:17.075Z,35.10
2019-02-05T14:44:44.430Z,35.20
2019-02-05T14:47:12.023Z,35.00
2019-02-05T14:49:39.633Z,34.60
2019-02-05T14:52:07.004Z,35.00
2019-02-05T14:54:34.457Z,34.50
2019-02-05T14:57:01.841Z,34.80
2019-02-05T14:59:29.652Z,34.80
2019-02-05T15:01:56.977Z,34.70
2019-02-05T15:04:24.404Z,34.70
2019-02-05T15:06:51.959Z,35.10
2019-02-05T15:09:19.449Z,35.30
2019-02-05T15:11:46.990Z,35.20
2019-02-05T15:14:14.447Z,35.30
2019-02-05T15:16:42.275Z,35.60
2019-02-05T15:19:09.622Z,35.90
2019-02-05T15:24:04.503Z,36.40
2019-02-05T15:26:31.977Z,36.60
2019-02-05T15:28:59.367Z,36.80
2019-02-05T15:31:26.848Z,37.00
2019-02-05T15:34:00.366Z,37.20
2019-02-05T15:36:40.041Z,37.60
2019-02-05T15:39:13.130Z,37.80
2019-02-05T15:44:07.858Z,38.30
2019-02-05T15:46:35.275Z,38.50
2019-02-05T15:49:02.746Z,38.70
2019-02-05T15:56:24.968Z,39.30
2019-02-05T15:58:52.461Z,39.50
2019-02-05T16:01:19.856Z,39.60
2019-02-05T16:03:47.319Z,39.80
2019-02-05T16:11:09.511Z,40.30
2019-02-05T16:13:36.929Z,40.50
2019-02-05T16:16:04.744Z,40.60
2019-02-05T16:21:00.010Z,41.00
2019-02-05T16:23:27.457Z,41.20
2019-02-05T16:25:55.191Z,41.30
2019-02-05T16:28:22.544Z,41.40
2019-02-05T16:33:17.272Z,41.60
2019-02-05T16:40:39.333Z,42.10
2019-02-05T16:50:35.751Z,42.60
2019-02-05T16:53:05.137Z,42.80
2019-02-05T16:55:32.989Z,42.90
2019-02-05T17:00:30.820Z,43.10
2019-02-05T17:02:58.254Z,43.30
2019-02-05T17:05:26.686Z,43.40
2019-02-05T17:07:54.183Z,43.50
2019-02-05T17:10:21.751Z,43.60
2019-02-05T17:12:49.268Z,43.70
2019-02-05T17:20:24.019Z,44.00
2019-02-05T17:22:51.518Z,44.00
2019-02-05T17:27:46.753Z,44.40
2019-02-05T17:30:17.174Z,44.40
2019-02-05T17:35:12.439Z,44.70
2019-02-05T17:37:39.825Z,44.90
2019-02-05T17:40:09.797Z,45.00
2019-02-05T17:42:37.709Z,45.30
2019-02-05T17:45:08.889Z,45.40
2019-02-05T17:47:36.349Z,45.40
2019-02-05T17:50:04.827Z,45.40
2019-02-05T17:52:34.240Z,45.50
2019-02-05T17:55:01.705Z,45.50
2019-02-05T17:57:29.596Z,45.60
2019-02-05T17:59:57.050Z,45.70
2019-02-05T18:04:51.760Z,45.80
2019-02-05T18:07:19.209Z,45.90
2019-02-05T18:09:46.663Z,45.90
2019-02-05T18:14:41.546Z,46.20
2019-02-05T18:19:36.486Z,46.20
2019-02-05T18:26:59.058Z,46.30
2019-02-05T18:29:26.449Z,46.40
2019-02-05T18:31:53.772Z,46.40
2019-02-05T18:34:21.461Z,46.50
2019-02-05T18:39:16.078Z,46.60
2019-02-05T18:44:10.734Z,46.70
2019-02-05T18:46:38.205Z,46.60
2019-02-05T18:49:06.755Z,46.70
2019-02-05T18:51:35.498Z,46.70
2019-02-05T18:54:05.624Z,46.80
2019-02-05T18:56:34.251Z,46.90
2019-02-05T18:59:01.798Z,47.00
2019-02-05T19:01:29.381Z,47.10
2019-02-05T19:03:58.042Z,47.10
2019-02-05T19:06:25.602Z,47.10
2019-02-05T19:08:53.406Z,47.20
2019-02-05T19:13:48.323Z,47.20
2019-02-05T19:16:16.287Z,47.20
2019-02-05T19:18:44.021Z,47.30
2019-02-05T19:21:11.640Z,47.30
2019-02-05T19:23:39.045Z,47.30
2019-02-05T19:26:17.386Z,47.30
2019-02-05T19:28:47.183Z,47.30
2019-02-05T19:31:24.895Z,47.40
2019-02-05T19:33:53.492Z,47.30
2019-02-05T19:38:48.510Z,47.30
2019-02-05T19:41:16.536Z,47.30
2019-02-05T19:43:56.019Z,47.40
2019-02-05T19:49:32.513Z,47.40
2019-02-05T19:54:28.002Z,47.40
2019-02-05T19:56:56.629Z,47.50
2019-02-05T20:01:52.128Z,47.60
2019-02-05T20:06:47.169Z,47.70
2019-02-05T20:09:14.707Z,47.80
2019-02-05T20:11:42.686Z,47.80
2019-02-05T20:14:10.306Z,48.00
2019-02-05T20:16:38.547Z,48.00
2019-02-05T20:19:07.183Z,48.10
2019-02-05T20:21:34.735Z,48.10
2019-02-05T20:26:29.842Z,48.20
2019-02-05T20:28:57.342Z,48.30
2019-02-05T20:31:24.759Z,48.30
2019-02-05T20:33:52.403Z,48.30
2019-02-05T20:38:47.968Z,48.40
2019-02-05T20:41:15.952Z,48.40
2019-02-05T20:43:43.424Z,48.40
2019-02-05T20:48:38.915Z,48.50
2019-02-05T20:53:38.848Z,48.60
2019-02-05T20:56:06.396Z,48.60
2019-02-05T20:58:33.896Z,48.60
2019-02-05T21:01:01.728Z,48.60
2019-02-05T21:03:29.693Z,48.50
2019-02-05T21:09:02.789Z,48.40
2019-02-05T21:13:48.790Z,48.40
2019-02-05T21:16:16.475Z,48.50
2019-02-05T21:18:43.971Z,48.50
2019-02-05T21:28:35.126Z,48.90
2019-02-05T21:31:02.683Z,49.10
2019-02-05T21:35:57.614Z,49.20
2019-02-05T21:43:20.371Z,49.30
2019-02-05T21:45:47.838Z,49.20
2019-02-05T21:48:18.563Z,49.20
2019-02-05T21:50:46.747Z,49.20
2019-02-05T21:53:14.678Z,49.20
2019-02-05T21:58:12.421Z,49.20
2019-02-05T22:00:39.801Z,49.10
2019-02-05T22:08:03.063Z,48.90
2019-02-05T22:10:30.800Z,48.80
2019-02-05T22:13:13.727Z,48.70
2019-02-05T22:15:41.481Z,48.60
2019-02-05T22:18:08.965Z,48.50
2019-02-05T22:20:36.587Z,48.40
2019-02-05T22:23:09.456Z,48.40
2019-02-05T22:25:36.896Z,48.30
2019-02-05T22:33:00.712Z,48.40
2019-02-05T22:35:28.570Z,48.50
2019-02-05T22:37:56.203Z,48.50
2019-02-05T22:40:24.943Z,48.60
2019-02-05T22:42:52.745Z,48.60
2019-02-05T22:47:48.084Z,48.70
2019-02-05T23:07:52.863Z,48.90
2019-02-05T23:10:51.754Z,48.90
2019-02-05T23:13:19.633Z,48.70
2019-02-05T23:15:48.470Z,48.60
2019-02-05T23:18:15.932Z,48.60
2019-02-05T23:20:43.339Z,48.50
2019-02-05T23:23:10.871Z,48.50
2019-02-05T23:25:38.246Z,48.50
2019-02-05T23:28:05.708Z,48.40
2019-02-05T23:30:33.061Z,48.40
2019-02-05T23:33:00.411Z,48.50
2019-02-05T23:35:28.161Z,48.50
2019-02-05T23:37:55.605Z,48.60
2019-02-05T23:40:23.035Z,48.60
2019-02-05T23:42:50.414Z,48.60
2019-02-05T23:47:45.012Z,48.50
2019-02-05T23:50:14.637Z,48.60
2019-02-05T23:57:38.062Z,48.70
